createdAt,value
2024-03-15T00:00:13.290Z,90.05
2024-03-15T00:02:41.588Z,90.54
2024-03-15T00:05:09.348Z,91.90
2024-03-15T00:07:35.693Z,91.91
2024-03-15T00:10:02.064Z,94.07
2024-03-15T00:12:28.486Z,95.42
2024-03-15T00:14:54.906Z,95.16
2024-03-15T00:17:21.312Z,94.10
2024-03-15T00:19:47.657Z,96.20
2024-03-15T00:22:14.056Z,95.01
2024-03-15T00:24:40.519Z,95.87
2024-03-15T00:27:07.077Z,93.93
2024-03-15T00:29:33.509Z,94.06
2024-03-15T00:31:59.889Z,93.74
2024-03-15T00:34:26.459Z,94.73
2024-03-15T00:36:52.790Z,97.84
2024-03-15T00:39:19.669Z,95.95
2024-03-15T00:41:45.989Z,96.10
2024-03-15T00:44:12.383Z,95.14
2024-03-15T00:46:38.716Z,95.02
2024-03-15T00:49:05.746Z,95.09
2024-03-15T00:54:07.397Z,95.63
2024-03-15T00:56:33.753Z,96.07
2024-03-15T00:59:00.055Z,98.23
2024-03-15T01:01:26.487Z,97.67
2024-03-15T01:03:53.075Z,96.81
2024-03-15T01:06:19.557Z,96.20
2024-03-15T01:08:45.917Z,98.00
2024-03-15T01:11:12.361Z,96.50
2024-03-15T01:13:38.691Z,95.28
2024-03-15T01:16:05.261Z,95.46
2024-03-15T01:18:31.647Z,94.86
2024-03-15T01:20:58.119Z,94.55
2024-03-15T01:23:24.483Z,94.35
2024-03-15T01:25:50.850Z,94.96
2024-03-15T01:28:17.417Z,94.19
2024-03-15T01:30:43.787Z,92.99
2024-03-15T01:33:10.256Z,93.48
2024-03-15T01:35:36.785Z,93.27
2024-03-15T01:38:04.427Z,93.55
2024-03-15T01:40:30.940Z,96.44
2024-03-15T01:42:57.339Z,95.01
2024-03-15T01:45:23.753Z,94.67
2024-03-15T01:47:50.494Z,94.21
2024-03-15T01:50:17.066Z,94.88
2024-03-15T01:52:43.842Z,94.17
2024-03-15T01:55:10.541Z,95.46
2024-03-15T01:57:40.694Z,94.88
2024-03-15T02:00:07.820Z,96.43
2024-03-15T02:02:34.179Z,95.41
2024-03-15T02:05:01.726Z,94.79
2024-03-15T02:07:28.063Z,94.46
2024-03-15T02:09:58.755Z,95.10
2024-03-15T02:12:26.532Z,95.52
2024-03-15T02:14:52.970Z,95.69
2024-03-15T02:17:20.141Z,95.85
2024-03-15T02:19:46.507Z,97.76
2024-03-15T02:22:13.069Z,95.83
2024-03-15T02:24:40.181Z,97.27
2024-03-15T02:27:06.651Z,96.97
2024-03-15T02:29:33.112Z,95.44
2024-03-15T02:31:59.501Z,94.82
2024-03-15T02:34:25.829Z,94.58
2024-03-15T02:36:52.291Z,94.19
2024-03-15T02:39:18.707Z,93.58
2024-03-15T02:41:45.211Z,93.31
2024-03-15T02:44:11.731Z,93.27
2024-03-15T02:46:38.120Z,93.73
2024-03-15T02:49:04.766Z,94.09
2024-03-15T02:51:31.431Z,94.78
2024-03-15T02:53:57.887Z,95.28
2024-03-15T02:56:24.265Z,94.81
2024-03-15T02:58:50.601Z,95.58
2024-03-15T03:01:17.019Z,94.92
2024-03-15T03:03:43.480Z,96.30
2024-03-15T03:06:09.860Z,95.68
2024-03-15T03:08:36.268Z,95.61
2024-03-15T03:11:03.653Z,95.30
2024-03-15T03:13:30.010Z,94.71
2024-03-15T03:15:56.514Z,94.56
2024-03-15T03:18:23.040Z,94.00
2024-03-15T03:20:49.522Z,93.42
2024-03-15T03:23:15.869Z,93.47
2024-03-15T03:25:42.190Z,92.99
2024-03-15T03:28:08.601Z,92.86
2024-03-15T03:30:34.986Z,92.59
2024-03-15T03:33:01.490Z,92.37
2024-03-15T03:35:27.914Z,92.52
2024-03-15T03:37:54.321Z,92.45
2024-03-15T03:40:20.759Z,92.30
2024-03-15T03:42:47.193Z,92.22
2024-03-15T03:45:14.170Z,92.02
2024-03-15T03:47:40.627Z,91.11
2024-03-15T03:50:07.089Z,91.53
2024-03-15T03:52:33.487Z,90.66
2024-03-15T03:54:59.978Z,91.11
2024-03-15T03:57:39.204Z,91.26
2024-03-15T04:00:11.508Z,90.80
2024-03-15T04:02:37.866Z,91.53
2024-03-15T04:05:04.527Z,90.80
2024-03-15T04:07:31.676Z,90.92
2024-03-15T04:09:58.126Z,90.82
2024-03-15T04:12:24.803Z,91.35
2024-03-15T04:14:55.788Z,90.60
2024-03-15T04:17:22.620Z,91.06
2024-03-15T04:19:48.973Z,90.63
2024-03-15T04:22:15.309Z,90.34
2024-03-15T04:24:41.839Z,90.81
2024-03-15T04:27:08.253Z,90.75
2024-03-15T04:29:34.708Z,90.58
2024-03-15T04:32:01.106Z,90.37
2024-03-15T04:34:27.495Z,90.04
2024-03-15T04:36:54.168Z,90.15
2024-03-15T04:39:20.688Z,90.49
2024-03-15T04:41:47.095Z,90.88
2024-03-15T04:44:13.412Z,90.60
2024-03-15T04:46:39.783Z,90.32
2024-03-15T04:49:06.316Z,90.98
2024-03-15T04:51:32.727Z,90.37
2024-03-15T04:53:59.131Z,90.56
2024-03-15T04:56:25.618Z,90.15
2024-03-15T04:58:51.948Z,90.40
2024-03-15T05:01:18.456Z,90.60
2024-03-15T05:03:44.845Z,90.75
2024-03-15T05:06:13.649Z,90.69
2024-03-15T05:08:46.816Z,90.93
2024-03-15T05:11:15.396Z,90.93
2024-03-15T05:13:41.930Z,90.88
2024-03-15T05:16:08.563Z,91.34
2024-03-15T05:18:34.968Z,91.40
2024-03-15T05:21:01.422Z,90.86
2024-03-15T05:23:27.744Z,90.90
2024-03-15T05:25:54.147Z,91.06
2024-03-15T05:28:20.491Z,91.37
2024-03-15T05:30:46.849Z,90.97
2024-03-15T05:33:13.338Z,90.86
2024-03-15T05:35:39.781Z,90.85
2024-03-15T05:38:06.176Z,90.79
2024-03-15T05:40:32.798Z,90.54
2024-03-15T05:45:32.814Z,90.23
2024-03-15T05:47:59.222Z,90.23
2024-03-15T05:50:25.568Z,90.58
2024-03-15T05:52:51.946Z,90.55
2024-03-15T05:55:18.545Z,90.80
2024-03-15T05:57:44.890Z,90.29
2024-03-15T06:00:16.280Z,90.51
2024-03-15T06:02:43.867Z,90.49
2024-03-15T06:05:10.296Z,90.46
2024-03-15T06:07:36.629Z,90.72
2024-03-15T06:10:03.243Z,90.95
2024-03-15T06:12:29.749Z,90.78
2024-03-15T06:14:56.177Z,90.61
2024-03-15T06:17:22.514Z,90.69
2024-03-15T06:19:48.864Z,90.68
2024-03-15T06:22:15.394Z,90.82
2024-03-15T06:24:41.730Z,90.91
2024-03-15T06:27:08.107Z,90.80
2024-03-15T06:29:34.532Z,90.81
2024-03-15T06:32:02.081Z,90.24
2024-03-15T06:34:28.686Z,90.36
2024-03-15T06:36:55.527Z,90.01
2024-03-15T06:39:22.137Z,89.75
2024-03-15T06:41:48.499Z,89.68
2024-03-15T06:44:14.824Z,88.99
2024-03-15T06:46:41.181Z,88.72
2024-03-15T06:49:07.542Z,88.66
2024-03-15T06:51:34.008Z,88.31
2024-03-15T06:54:00.405Z,88.42
2024-03-15T06:56:26.998Z,87.54
2024-03-15T06:58:53.326Z,87.32
2024-03-15T07:01:19.673Z,88.61
2024-03-15T07:03:46.070Z,88.47
2024-03-15T07:06:12.569Z,89.09
2024-03-15T07:08:39.034Z,87.59
2024-03-15T07:11:05.425Z,87.38
2024-03-15T07:13:31.793Z,87.26
2024-03-15T07:15:58.293Z,86.89
2024-03-15T07:18:24.817Z,86.23
2024-03-15T07:20:51.317Z,85.69
2024-03-15T07:23:17.876Z,85.48
2024-03-15T07:25:44.329Z,86.27
2024-03-15T07:28:10.826Z,85.23
2024-03-15T07:30:37.347Z,85.88
2024-03-15T07:33:04.398Z,84.95
2024-03-15T07:35:31.028Z,84.66
2024-03-15T07:37:57.357Z,85.18
2024-03-15T07:40:23.741Z,85.54
2024-03-15T07:42:50.113Z,84.77
2024-03-15T07:45:16.645Z,84.51
2024-03-15T07:47:43.106Z,83.71
2024-03-15T07:50:09.479Z,84.52
2024-03-15T07:52:35.869Z,83.36
2024-03-15T07:55:02.264Z,83.38
2024-03-15T07:57:28.735Z,83.65
2024-03-15T07:59:55.112Z,83.11
2024-03-15T08:02:21.569Z,83.58
2024-03-15T08:04:47.962Z,83.05
2024-03-15T08:07:14.413Z,82.52
2024-03-15T08:09:40.919Z,82.77
2024-03-15T08:12:07.424Z,82.51
2024-03-15T08:14:34.369Z,81.64
2024-03-15T08:17:00.825Z,81.13
2024-03-15T08:19:27.306Z,80.07
2024-03-15T08:21:54.714Z,79.89
2024-03-15T08:24:23.036Z,79.26
2024-03-15T08:26:49.425Z,78.14
2024-03-15T08:29:15.746Z,77.73
2024-03-15T08:31:42.186Z,75.62
2024-03-15T08:34:08.643Z,76.97
2024-03-15T08:36:35.488Z,76.02
2024-03-15T08:39:01.884Z,73.29
2024-03-15T08:41:28.217Z,71.13
2024-03-15T08:43:54.604Z,70.44
2024-03-15T08:46:21.147Z,69.68
2024-03-15T08:48:47.741Z,66.66
2024-03-15T08:51:14.248Z,65.25
2024-03-15T08:53:40.628Z,65.21
2024-03-15T08:56:06.993Z,63.63
2024-03-15T08:58:33.317Z,63.66
2024-03-15T09:01:01.296Z,63.11
2024-03-15T09:03:27.825Z,61.60
2024-03-15T09:05:54.234Z,61.86
2024-03-15T09:08:20.583Z,60.70
2024-03-15T09:10:47.034Z,60.11
2024-03-15T09:13:13.414Z,61.88
2024-03-15T09:15:39.870Z,60.37
2024-03-15T09:18:06.338Z,60.03
2024-03-15T09:20:32.693Z,59.51
2024-03-15T09:22:59.182Z,60.57
2024-03-15T09:25:25.749Z,59.98
2024-03-15T09:27:52.195Z,59.62
2024-03-15T09:30:18.636Z,58.98
2024-03-15T09:32:45.649Z,59.22
2024-03-15T09:40:29.759Z,59.72
2024-03-15T09:42:56.236Z,58.51
2024-03-15T09:45:23.615Z,59.43
2024-03-15T09:47:51.041Z,58.84
2024-03-15T09:50:19.702Z,58.01
2024-03-15T09:52:46.504Z,59.07
2024-03-15T09:55:15.446Z,58.57
2024-03-15T09:57:43.020Z,57.92
2024-03-15T10:00:17.366Z,57.49
2024-03-15T10:02:44.961Z,58.40
2024-03-15T10:05:12.507Z,57.23
2024-03-15T11:07:36.356Z,51.72
2024-03-15T11:20:55.569Z,49.68
2024-03-15T14:12:35.225Z,53.79
2024-03-15T14:39:12.317Z,55.68
2024-03-15T14:41:38.655Z,56.15
2024-03-15T14:44:05.187Z,56.36
2024-03-15T14:46:31.682Z,55.83
2024-03-15T14:48:58.053Z,54.96
2024-03-15T14:51:24.517Z,56.17
2024-03-15T14:53:50.951Z,56.55
2024-03-15T14:56:17.336Z,57.05
2024-03-15T14:58:43.684Z,57.42
2024-03-15T15:01:10.126Z,57.41
2024-03-15T15:03:36.731Z,57.19
2024-03-15T15:06:03.572Z,56.05
2024-03-15T15:08:30.072Z,56.74
2024-03-15T15:10:56.439Z,57.26
2024-03-15T15:13:22.918Z,56.85
2024-03-15T15:15:49.836Z,58.54
2024-03-15T15:18:16.289Z,57.38
2024-03-15T15:20:42.784Z,58.50
2024-03-15T15:23:09.355Z,58.65
2024-03-15T15:25:35.775Z,59.11
2024-03-15T15:28:02.406Z,59.14
2024-03-15T15:30:29.023Z,59.02
2024-03-15T15:32:55.885Z,59.32
2024-03-15T15:35:22.438Z,59.63
2024-03-15T15:37:48.822Z,59.57
2024-03-15T15:40:15.529Z,60.36
2024-03-15T15:42:42.476Z,60.61
2024-03-15T15:45:09.341Z,61.03
2024-03-15T15:47:35.781Z,61.44
2024-03-15T15:50:02.219Z,61.15
2024-03-15T15:52:28.556Z,61.48
2024-03-15T15:54:55.043Z,61.26
2024-03-15T15:57:21.502Z,61.25
2024-03-15T15:59:47.863Z,62.38
2024-03-15T16:02:14.274Z,62.04
2024-03-15T16:04:40.637Z,62.09
2024-03-15T16:07:07.090Z,62.18
2024-03-15T16:09:33.698Z,62.25
2024-03-15T16:12:00.395Z,63.20
2024-03-15T16:14:26.887Z,62.81
2024-03-15T16:16:53.417Z,62.87
2024-03-15T16:19:20.630Z,63.37
2024-03-15T16:21:47.072Z,63.76
2024-03-15T16:24:13.556Z,63.36
2024-03-15T16:26:40.035Z,63.06
2024-03-15T16:29:06.656Z,63.18
2024-03-15T16:31:33.371Z,63.43
2024-03-15T16:33:59.844Z,63.19
2024-03-15T16:36:26.310Z,63.18
2024-03-15T16:38:54.674Z,63.29
2024-03-15T16:41:23.764Z,63.62
2024-03-15T16:43:50.101Z,63.34
2024-03-15T16:46:16.469Z,63.81
2024-03-15T16:48:42.886Z,64.01
2024-03-15T16:51:09.389Z,63.90
2024-03-15T16:53:37.111Z,64.28
2024-03-15T16:56:03.659Z,64.26
2024-03-15T16:58:29.988Z,64.15
2024-03-15T17:00:56.502Z,64.22
2024-03-15T17:03:23.022Z,64.55
2024-03-15T17:05:49.457Z,65.14
2024-03-15T17:08:15.804Z,65.39
2024-03-15T17:10:42.301Z,65.08
2024-03-15T17:13:08.808Z,64.86
2024-03-15T17:15:35.298Z,65.32
2024-03-15T17:18:01.962Z,65.36
2024-03-15T17:20:28.337Z,65.41
2024-03-15T17:22:54.719Z,65.73
2024-03-15T17:25:21.095Z,66.00
2024-03-15T17:27:47.547Z,66.03
2024-03-15T17:30:13.977Z,66.27
2024-03-15T17:32:40.354Z,66.61
2024-03-15T17:35:06.894Z,66.71
2024-03-15T17:37:33.247Z,67.50
2024-03-15T17:39:59.628Z,69.09
2024-03-15T17:42:26.104Z,68.89
2024-03-15T17:44:52.546Z,69.07
2024-03-15T17:47:18.877Z,69.35
2024-03-15T17:49:45.213Z,69.71
2024-03-15T17:52:11.919Z,70.18
2024-03-15T17:54:38.366Z,69.57
2024-03-15T17:57:05.026Z,70.02
2024-03-15T17:59:31.376Z,70.24
2024-03-15T18:01:57.707Z,70.16
2024-03-15T18:04:24.062Z,70.63
2024-03-15T18:06:50.526Z,70.51
2024-03-15T18:09:17.017Z,70.49
2024-03-15T18:11:43.380Z,70.47
2024-03-15T18:14:09.750Z,70.32
2024-03-15T18:16:36.153Z,70.61
2024-03-15T18:19:02.842Z,71.15
2024-03-15T18:21:29.384Z,71.00
2024-03-15T18:23:55.819Z,70.93
2024-03-15T18:26:22.201Z,71.08
2024-03-15T18:28:48.565Z,71.09
2024-03-15T18:31:14.994Z,71.17
2024-03-15T18:33:41.433Z,71.08
2024-03-15T18:36:08.055Z,71.14
2024-03-15T18:38:34.572Z,71.36
2024-03-15T18:41:01.034Z,71.34
2024-03-15T18:43:27.417Z,71.56
2024-03-15T18:45:53.794Z,71.93
2024-03-15T18:48:20.525Z,71.87
2024-03-15T18:50:46.951Z,72.12
2024-03-15T18:53:13.661Z,72.72
2024-03-15T18:55:40.327Z,72.89
2024-03-15T18:58:06.698Z,73.01
2024-03-15T19:00:33.128Z,72.52
2024-03-15T19:02:59.508Z,72.96
2024-03-15T19:05:25.920Z,73.15
2024-03-15T19:07:52.281Z,73.10
2024-03-15T19:10:19.012Z,72.74
2024-03-15T19:12:45.471Z,73.27
2024-03-15T19:15:11.868Z,73.02
2024-03-15T19:17:39.379Z,74.06
2024-03-15T19:20:06.253Z,74.48
2024-03-15T19:22:33.464Z,74.50
2024-03-15T19:24:59.874Z,74.16
2024-03-15T19:27:26.286Z,74.37
2024-03-15T19:29:52.760Z,74.54
2024-03-15T19:32:19.206Z,74.32
2024-03-15T19:37:20.763Z,75.26
2024-03-15T19:42:14.911Z,74.34
2024-03-15T19:44:41.298Z,74.04
2024-03-15T19:47:07.887Z,74.29
2024-03-15T19:49:38.116Z,74.41
2024-03-15T19:52:05.053Z,74.41
2024-03-15T19:54:31.796Z,74.10
2024-03-15T20:04:57.325Z,74.82
2024-03-15T20:07:23.708Z,75.22
2024-03-15T20:09:50.204Z,74.46
2024-03-15T20:12:16.648Z,74.90
2024-03-15T20:14:43.192Z,74.68
2024-03-15T20:17:09.596Z,74.97
2024-03-15T20:19:35.982Z,74.18
2024-03-15T20:22:02.672Z,74.39
2024-03-15T20:24:29.674Z,74.21
2024-03-15T20:26:56.115Z,73.98
2024-03-15T20:29:22.717Z,74.24
2024-03-15T20:31:49.073Z,74.27
2024-03-15T20:34:15.449Z,74.37
2024-03-15T20:36:41.951Z,74.30
2024-03-15T20:39:08.439Z,74.45
2024-03-15T20:41:34.840Z,74.45
2024-03-15T20:44:01.394Z,74.34
2024-03-15T20:46:27.831Z,74.42
2024-03-15T20:48:54.329Z,74.45
2024-03-15T20:51:20.797Z,74.58
2024-03-15T20:53:47.154Z,74.23
2024-03-15T20:56:13.505Z,74.41
2024-03-15T20:58:39.892Z,74.69
2024-03-15T21:01:06.394Z,74.82
2024-03-15T21:03:33.226Z,74.97
2024-03-15T21:11:16.340Z,74.10
2024-03-15T21:13:42.754Z,74.51
2024-03-15T21:16:09.320Z,74.89
2024-03-15T21:18:35.767Z,74.44
2024-03-15T21:21:02.220Z,74.70
2024-03-15T21:23:28.602Z,74.71
2024-03-15T21:31:18.317Z,74.79
2024-03-15T22:05:27.380Z,76.23
2024-03-15T22:13:07.909Z,76.60
2024-03-15T22:15:34.300Z,76.40
2024-03-15T22:18:00.813Z,76.34
2024-03-15T22:23:07.329Z,76.34
2024-03-15T22:25:33.732Z,75.81
2024-03-15T22:28:00.266Z,76.12
2024-03-15T22:30:26.670Z,75.27
2024-03-15T22:32:53.113Z,75.61
2024-03-15T22:35:19.554Z,75.57
2024-03-15T22:37:45.965Z,75.74
2024-03-15T22:40:12.552Z,75.83
2024-03-15T22:42:38.962Z,75.55
2024-03-15T22:45:05.677Z,76.49
2024-03-15T22:47:32.027Z,76.44
2024-03-15T22:49:58.380Z,77.40
2024-03-15T22:52:24.881Z,76.77
2024-03-15T22:54:51.241Z,77.18
2024-03-15T22:57:17.678Z,77.03
2024-03-15T22:59:44.043Z,76.95
2024-03-15T23:02:10.412Z,76.52
2024-03-15T23:04:36.792Z,76.54
2024-03-15T23:07:03.830Z,75.80
2024-03-15T23:09:30.492Z,75.56
2024-03-15T23:11:57.266Z,76.00
2024-03-15T23:14:23.892Z,75.80
2024-03-15T23:16:50.405Z,75.61
2024-03-15T23:19:16.936Z,75.17
2024-03-15T23:21:43.354Z,74.86
2024-03-15T23:24:09.800Z,74.70
2024-03-15T23:26:36.476Z,74.45
2024-03-15T23:29:03.029Z,74.77
2024-03-15T23:31:29.373Z,74.35
2024-03-15T23:33:55.818Z,73.75
2024-03-15T23:36:22.215Z,74.01
2024-03-15T23:38:48.720Z,73.77
2024-03-15T23:41:15.057Z,73.71
2024-03-15T23:43:41.438Z,73.81
2024-03-15T23:46:07.861Z,73.80
2024-03-15T23:48:34.357Z,74.43
2024-03-15T23:51:00.767Z,74.86
2024-03-15T23:53:28.026Z,76.74
2024-03-15T23:55:54.510Z,76.11
2024-03-15T23:58:21.648Z,76.25
